createdAt,value
2019-02-26T00:00:47.084Z,3.00
2019-02-26T00:03:52.128Z,3.00
2019-02-26T00:06:57.532Z,3.20
2019-02-26T00:10:02.581Z,3.30
2019-02-26T00:13:07.671Z,3.30
2019-02-26T00:16:13.400Z,3.20
2019-02-26T00:19:16.488Z,3.00
2019-02-26T00:22:19.920Z,2.70
2019-02-26T00:25:24.403Z,2.60
2019-02-26T00:28:27.844Z,2.50
2019-02-26T00:31:31.311Z,2.40
2019-02-26T00:34:36.742Z,2.20
2019-02-26T00:37:41.021Z,2.00
2019-02-26T00:40:44.577Z,1.90
2019-02-26T00:43:51.219Z,1.90
2019-02-26T00:46:53.622Z,1.70
2019-02-26T00:49:58.568Z,1.70
2019-02-26T00:53:03.884Z,1.50
2019-02-26T00:56:08.000Z,1.40
2019-02-26T00:59:12.452Z,1.30
2019-02-26T01:02:15.896Z,1.30
2019-02-26T01:05:19.460Z,1.10
2019-02-26T01:08:23.000Z,1.00
2019-02-26T01:11:27.988Z,0.90
2019-02-26T01:14:31.712Z,0.90
2019-02-26T01:17:35.816Z,0.80
2019-02-26T01:20:40.349Z,0.80
2019-02-26T01:23:43.851Z,0.60
2019-02-26T01:26:47.277Z,0.60
2019-02-26T01:29:53.185Z,0.70
2019-02-26T01:32:57.626Z,0.70
2019-02-26T01:36:02.656Z,0.60
2019-02-26T01:39:09.669Z,0.50
2019-02-26T01:42:13.386Z,0.60
2019-02-26T01:45:19.618Z,0.60
2019-02-26T01:48:23.783Z,0.70
2019-02-26T01:51:28.673Z,0.80
2019-02-26T01:54:33.413Z,0.70
2019-02-26T01:57:37.628Z,0.60
2019-02-26T02:00:41.285Z,0.50
2019-02-26T02:03:46.562Z,0.40
2019-02-26T02:06:50.132Z,0.20
2019-02-26T02:09:55.554Z,0.20
2019-02-26T02:13:00.273Z,0.10
2019-02-26T02:16:06.727Z,0.10
2019-02-26T02:19:09.763Z,0.10
2019-02-26T02:22:14.659Z,0.00
2019-02-26T02:25:19.217Z,0.00
2019-02-26T02:28:23.827Z,0.10
2019-02-26T02:31:31.237Z,0.10
2019-02-26T02:34:36.602Z,0.10
2019-02-26T02:37:38.419Z,0.00
2019-02-26T02:40:43.175Z,0.00
2019-02-26T02:43:47.065Z,0.00
2019-02-26T02:46:50.468Z,0.00
2019-02-26T02:49:53.971Z,0.00
2019-02-26T02:52:59.660Z,0.20
2019-02-26T02:56:03.694Z,0.30
2019-02-26T02:59:08.938Z,0.20
2019-02-26T03:02:15.087Z,0.20
2019-02-26T03:05:18.754Z,0.20
2019-02-26T03:08:22.624Z,0.30
2019-02-26T03:11:26.260Z,0.30
2019-02-26T03:14:30.770Z,0.30
2019-02-26T03:17:34.954Z,0.20
2019-02-26T03:20:40.395Z,0.20
2019-02-26T03:23:45.596Z,0.40
2019-02-26T03:26:49.244Z,0.40
2019-02-26T03:29:55.590Z,0.40
2019-02-26T03:33:03.899Z,0.40
2019-02-26T03:36:05.456Z,0.40
2019-02-26T03:39:08.849Z,0.30
2019-02-26T03:42:14.175Z,0.40
2019-02-26T03:45:23.581Z,0.50
2019-02-26T03:48:23.091Z,0.60
2019-02-26T03:51:26.688Z,0.60
2019-02-26T03:54:30.192Z,0.60
2019-02-26T03:57:33.686Z,0.90
2019-02-26T04:00:38.676Z,1.10
2019-02-26T04:03:42.744Z,1.10
2019-02-26T04:06:47.174Z,1.30
2019-02-26T04:09:53.100Z,1.40
2019-02-26T04:12:58.057Z,1.40
2019-02-26T04:16:02.247Z,1.40
2019-02-26T04:19:08.951Z,1.40
2019-02-26T04:22:28.432Z,1.50
2019-02-26T04:26:15.955Z,1.50
2019-02-26T04:30:10.995Z,1.60
2019-02-26T04:34:05.396Z,1.70
2019-02-26T04:37:35.079Z,1.70
2019-02-26T04:41:08.837Z,1.80
2019-02-26T04:44:50.364Z,2.00
2019-02-26T04:47:54.690Z,2.00
2019-02-26T04:50:56.648Z,2.00
2019-02-26T04:54:02.023Z,2.10
2019-02-26T04:57:06.308Z,2.20
2019-02-26T05:00:10.694Z,2.20
2019-02-26T05:03:17.191Z,2.30
2019-02-26T05:06:19.789Z,2.20
2019-02-26T05:09:24.725Z,2.20
2019-02-26T05:12:30.891Z,2.10
2019-02-26T05:15:33.916Z,2.00
2019-02-26T05:18:38.416Z,2.00
2019-02-26T05:21:41.807Z,1.90
2019-02-26T05:24:47.427Z,1.90
2019-02-26T05:27:51.568Z,1.90
2019-02-26T05:30:55.126Z,1.90
2019-02-26T05:34:00.067Z,1.80
2019-02-26T05:37:04.716Z,1.80
2019-02-26T05:40:12.606Z,1.80
2019-02-26T05:43:14.100Z,1.70
2019-02-26T05:46:19.550Z,1.60
2019-02-26T05:49:22.948Z,1.50
2019-02-26T05:52:27.272Z,1.50
2019-02-26T05:55:31.737Z,1.50
2019-02-26T05:58:36.302Z,1.70
2019-02-26T06:01:40.548Z,1.90
2019-02-26T06:04:46.570Z,2.00
2019-02-26T06:07:49.209Z,2.10
2019-02-26T06:10:52.629Z,2.20
2019-02-26T06:13:58.173Z,2.40
2019-02-26T06:17:01.136Z,2.50
2019-02-26T06:20:11.118Z,2.60
2019-02-26T06:23:14.592Z,2.70
2019-02-26T06:26:18.126Z,2.80
2019-02-26T06:29:24.449Z,3.00
2019-02-26T06:32:29.916Z,3.10
2019-02-26T06:35:33.688Z,3.20
2019-02-26T06:38:37.429Z,3.20
2019-02-26T06:41:41.927Z,3.30
2019-02-26T06:44:47.120Z,3.40
2019-02-26T06:47:53.513Z,3.40
2019-02-26T06:50:57.533Z,3.40
2019-02-26T06:54:02.004Z,3.40
2019-02-26T06:57:05.515Z,3.30
2019-02-26T07:00:10.855Z,3.30
2019-02-26T07:03:14.460Z,3.20
2019-02-26T07:06:20.586Z,3.10
2019-02-26T07:09:23.210Z,3.10
2019-02-26T07:12:26.651Z,3.10
2019-02-26T07:15:31.128Z,3.20
2019-02-26T07:18:34.531Z,3.40
2019-02-26T07:21:38.016Z,3.40
2019-02-26T07:24:46.287Z,3.50
2019-02-26T07:27:51.214Z,3.60
2019-02-26T07:30:54.688Z,3.70
2019-02-26T07:34:00.471Z,3.80
2019-02-26T07:37:04.251Z,3.90
2019-02-26T07:40:10.634Z,4.00
2019-02-26T07:43:15.445Z,4.10
2019-02-26T07:46:21.459Z,4.30
2019-02-26T07:49:25.728Z,4.50
2019-02-26T07:52:31.233Z,4.70
2019-02-26T07:55:35.388Z,4.80
2019-02-26T07:58:41.194Z,5.10
2019-02-26T08:01:49.638Z,5.30
2019-02-26T08:04:52.560Z,5.50
2019-02-26T08:07:56.616Z,5.70
2019-02-26T08:11:00.185Z,6.00
2019-02-26T08:14:03.936Z,6.20
2019-02-26T08:17:08.556Z,6.30
2019-02-26T08:20:14.897Z,6.40
2019-02-26T08:23:19.883Z,6.40
2019-02-26T08:26:24.419Z,6.40
2019-02-26T08:29:31.327Z,6.40
2019-02-26T08:32:34.464Z,6.50
2019-02-26T08:35:37.932Z,6.50
2019-02-26T08:38:41.477Z,6.50
2019-02-26T08:42:13.427Z,6.80
2019-02-26T08:45:21.037Z,7.00
2019-02-26T08:48:24.675Z,7.20
2019-02-26T08:51:29.028Z,7.20
2019-02-26T08:54:33.326Z,7.20
2019-02-26T08:57:37.708Z,7.20
2019-02-26T09:00:42.196Z,7.30
2019-02-26T09:03:45.632Z,7.50
2019-02-26T09:06:50.556Z,7.60
2019-02-26T09:09:57.959Z,7.70
2019-02-26T09:13:03.212Z,7.80
2019-02-26T09:16:08.662Z,7.90
2019-02-26T09:19:14.709Z,8.10
2019-02-26T09:22:20.741Z,8.20
2019-02-26T09:25:26.122Z,8.30
2019-02-26T09:28:29.562Z,8.50
2019-02-26T09:31:34.256Z,8.70
2019-02-26T09:34:39.838Z,8.70
2019-02-26T09:37:44.835Z,8.80
2019-02-26T09:40:50.104Z,8.80
2019-02-26T09:43:55.032Z,9.00
2019-02-26T09:47:00.565Z,9.20
2019-02-26T09:50:04.095Z,9.30
2019-02-26T09:53:07.689Z,9.40
2019-02-26T09:56:11.144Z,9.60
2019-02-26T09:59:14.795Z,9.70
2019-02-26T10:02:20.121Z,9.90
2019-02-26T10:05:23.952Z,10.00
2019-02-26T10:08:29.944Z,9.80
2019-02-26T10:11:32.802Z,9.70
2019-02-26T10:14:38.396Z,9.50
2019-02-26T10:17:42.746Z,9.30
2019-02-26T10:20:47.550Z,9.70
2019-02-26T10:23:53.987Z,9.60
2019-02-26T10:27:00.767Z,9.60
2019-02-26T10:30:05.060Z,10.20
2019-02-26T10:33:08.262Z,11.00
2019-02-26T10:36:13.456Z,11.70
2019-02-26T10:39:20.104Z,11.90
2019-02-26T10:42:22.321Z,11.40
2019-02-26T10:45:26.624Z,11.30
2019-02-26T10:48:30.081Z,11.40
2019-02-26T10:51:33.645Z,11.30
2019-02-26T10:54:40.338Z,11.30
2019-02-26T10:57:42.390Z,11.10
2019-02-26T11:00:49.969Z,11.30
2019-02-26T11:03:55.138Z,11.30
2019-02-26T11:06:59.392Z,11.50
2019-02-26T11:10:05.313Z,11.30
2019-02-26T11:13:09.060Z,11.30
2019-02-26T11:16:17.312Z,11.60
2019-02-26T11:19:17.768Z,12.10
2019-02-26T11:22:22.962Z,12.20
2019-02-26T11:25:27.583Z,12.10
2019-02-26T11:28:33.250Z,12.20
2019-02-26T11:31:38.927Z,12.20
2019-02-26T11:34:42.129Z,12.20
2019-02-26T11:37:47.249Z,11.50
2019-02-26T11:40:50.779Z,11.30
2019-02-26T11:43:54.316Z,11.20
2019-02-26T11:46:58.295Z,11.10
2019-02-26T11:50:04.113Z,11.00
2019-02-26T11:53:09.361Z,11.40
2019-02-26T11:56:13.105Z,11.60
2019-02-26T11:59:19.410Z,11.80
2019-02-26T12:02:28.054Z,11.60
2019-02-26T12:05:33.050Z,11.60
2019-02-26T12:08:33.560Z,11.90
2019-02-26T12:12:23.480Z,11.70
2019-02-26T12:15:42.740Z,11.80
2019-02-26T12:19:11.213Z,11.80
2019-02-26T12:23:13.366Z,11.90
2019-02-26T12:31:09.850Z,12.30
2019-02-26T12:34:32.060Z,12.70
2019-02-26T12:37:59.343Z,12.80
2019-02-26T12:41:45.893Z,13.10
2019-02-26T12:48:47.699Z,13.20
2019-02-26T12:51:51.167Z,13.10
2019-02-26T12:54:57.709Z,13.30
2019-02-26T12:58:01.120Z,13.40
2019-02-26T13:01:04.494Z,13.20
2019-02-26T13:04:09.624Z,13.00
2019-02-26T13:07:14.052Z,13.10
2019-02-26T13:10:20.733Z,13.20
2019-02-26T13:13:24.135Z,13.30
2019-02-26T13:16:27.636Z,13.30
2019-02-26T13:19:33.414Z,13.40
2019-02-26T13:22:36.380Z,13.80
2019-02-26T13:25:39.920Z,14.90
2019-02-26T13:28:46.835Z,15.80
2019-02-26T13:31:56.202Z,15.60
2019-02-26T13:35:00.802Z,15.70
2019-02-26T13:38:02.959Z,14.70
2019-02-26T13:41:25.339Z,14.50
2019-02-26T13:44:11.852Z,14.40
2019-02-26T13:47:15.464Z,14.50
2019-02-26T13:50:23.788Z,14.10
2019-02-26T13:53:27.172Z,14.00
2019-02-26T13:56:30.620Z,14.10
2019-02-26T13:59:34.264Z,13.90
2019-02-26T14:02:37.789Z,13.80
2019-02-26T14:05:41.320Z,13.70
2019-02-26T14:08:44.825Z,14.10
2019-02-26T14:11:48.290Z,14.20
2019-02-26T14:14:51.793Z,14.20
2019-02-26T14:17:58.677Z,14.30
2019-02-26T14:21:04.224Z,14.50
2019-02-26T14:24:07.629Z,14.70
2019-02-26T14:27:11.124Z,15.70
2019-02-26T14:30:14.629Z,15.80
2019-02-26T14:33:18.237Z,15.60
2019-02-26T14:36:21.636Z,15.10
2019-02-26T14:39:25.076Z,14.90
2019-02-26T14:42:28.640Z,14.70
2019-02-26T14:45:33.535Z,14.60
2019-02-26T14:48:36.972Z,14.70
2019-02-26T14:51:40.271Z,14.70
2019-02-26T14:54:43.771Z,14.20
2019-02-26T14:57:47.481Z,14.00
2019-02-26T15:00:57.408Z,14.60
2019-02-26T15:03:56.324Z,15.50
2019-02-26T15:06:59.728Z,15.90
2019-02-26T15:10:03.703Z,16.70
2019-02-26T15:13:07.364Z,16.60
2019-02-26T15:16:10.755Z,17.10
2019-02-26T15:19:14.151Z,16.90
2019-02-26T15:22:17.549Z,15.60
2019-02-26T15:25:22.180Z,14.80
2019-02-26T15:28:25.613Z,14.30
2019-02-26T15:31:29.432Z,13.90
2019-02-26T15:34:32.884Z,13.50
2019-02-26T15:37:36.428Z,13.30
2019-02-26T15:40:39.927Z,13.00
2019-02-26T15:43:43.389Z,12.70
2019-02-26T15:46:46.936Z,12.50
2019-02-26T15:49:51.671Z,12.40
2019-02-26T15:52:55.370Z,12.40
2019-02-26T15:55:59.472Z,12.40
2019-02-26T15:59:04.708Z,12.30
2019-02-26T16:02:08.852Z,12.20
2019-02-26T16:05:12.416Z,12.10
2019-02-26T16:08:15.965Z,12.00
2019-02-26T16:11:19.668Z,11.80
2019-02-26T16:14:24.152Z,11.80
2019-02-26T16:17:27.592Z,11.60
2019-02-26T16:20:31.152Z,11.40
2019-02-26T16:23:34.760Z,11.30
2019-02-26T16:26:38.469Z,11.20
2019-02-26T16:29:44.067Z,10.80
2019-02-26T16:32:48.958Z,10.70
2019-02-26T16:35:52.710Z,10.40
2019-02-26T16:38:56.264Z,10.30
2019-02-26T16:41:59.732Z,10.10
2019-02-26T16:45:03.381Z,9.90
2019-02-26T16:48:09.852Z,9.70
2019-02-26T16:51:13.570Z,9.60
2019-02-26T16:54:17.208Z,9.60
2019-02-26T16:57:21.684Z,9.50
2019-02-26T17:00:25.187Z,9.40
2019-02-26T17:03:28.733Z,9.30
2019-02-26T17:06:45.001Z,9.20
2019-02-26T17:09:48.620Z,9.00
2019-02-26T17:12:53.444Z,8.80
2019-02-26T17:15:59.399Z,8.90
2019-02-26T17:19:02.179Z,8.80
2019-02-26T17:22:05.880Z,8.70
2019-02-26T17:25:09.410Z,8.60
2019-02-26T17:28:12.942Z,8.40
2019-02-26T17:31:17.376Z,8.20
2019-02-26T17:34:23.483Z,8.00
2019-02-26T17:37:26.312Z,7.80
2019-02-26T17:40:29.764Z,7.70
2019-02-26T17:43:33.728Z,7.50
2019-02-26T17:46:37.180Z,7.30
2019-02-26T17:49:40.679Z,7.10
2019-02-26T17:52:44.184Z,6.90
2019-02-26T17:55:47.836Z,6.80
2019-02-26T17:58:51.392Z,6.70
2019-02-26T18:01:54.995Z,6.60
2019-02-26T18:05:00.592Z,6.50
2019-02-26T18:08:04.104Z,6.10
2019-02-26T18:11:07.551Z,5.90
2019-02-26T18:14:11.152Z,5.80
2019-02-26T18:17:14.112Z,5.70
2019-02-26T18:20:17.756Z,5.60
2019-02-26T18:23:21.300Z,5.50
2019-02-26T18:26:24.886Z,5.30
2019-02-26T18:29:28.491Z,5.20
2019-02-26T18:32:32.681Z,5.20
2019-02-26T18:35:36.221Z,5.10
2019-02-26T18:38:39.956Z,5.00
2019-02-26T18:41:50.544Z,4.90
2019-02-26T18:44:48.972Z,4.80
2019-02-26T18:47:52.700Z,4.70
2019-02-26T18:50:56.296Z,4.70
2019-02-26T18:54:00.411Z,4.50
2019-02-26T18:57:04.020Z,4.40
2019-02-26T19:00:09.113Z,4.30
2019-02-26T19:03:14.489Z,4.20
2019-02-26T19:06:19.476Z,4.00
2019-02-26T19:09:23.112Z,3.90
2019-02-26T19:12:30.260Z,3.90
2019-02-26T19:15:32.164Z,3.80
2019-02-26T19:18:36.221Z,3.80
2019-02-26T19:21:40.640Z,3.70
2019-02-26T19:24:44.201Z,3.70
2019-02-26T19:27:47.743Z,3.60
2019-02-26T19:30:51.226Z,3.60
2019-02-26T19:33:55.781Z,3.60
2019-02-26T19:36:59.376Z,3.50
2019-02-26T19:40:05.742Z,3.40
2019-02-26T19:43:08.439Z,3.40
2019-02-26T19:46:11.892Z,3.30
2019-02-26T19:49:15.496Z,3.20
2019-02-26T19:52:19.130Z,3.10
2019-02-26T19:55:24.960Z,3.00
2019-02-26T19:58:28.399Z,2.80
2019-02-26T20:01:31.964Z,2.80
2019-02-26T20:04:38.422Z,2.70
2019-02-26T20:07:41.057Z,2.70
2019-02-26T20:10:48.722Z,2.70
2019-02-26T20:13:51.504Z,2.60
2019-02-26T20:16:55.008Z,2.50
2019-02-26T20:19:58.412Z,2.50
2019-02-26T20:23:05.200Z,2.50
2019-02-26T20:26:08.080Z,2.40
2019-02-26T20:29:11.580Z,2.30
2019-02-26T20:32:15.080Z,2.30
2019-02-26T20:35:18.581Z,2.20
2019-02-26T20:38:22.024Z,2.10
2019-02-26T20:41:25.580Z,2.10
2019-02-26T20:44:29.096Z,2.00
2019-02-26T20:47:32.936Z,1.90
2019-02-26T20:50:36.561Z,1.80
2019-02-26T20:53:40.248Z,1.80
2019-02-26T20:56:44.949Z,1.70
2019-02-26T20:59:51.719Z,1.60
2019-02-26T21:02:55.197Z,1.60
2019-02-26T21:05:58.692Z,1.50
2019-02-26T21:09:06.953Z,1.50
2019-02-26T21:12:10.556Z,1.50
2019-02-26T21:15:15.776Z,1.50
2019-02-26T21:18:19.840Z,1.40
2019-02-26T21:21:23.984Z,1.40
2019-02-26T21:24:28.040Z,1.30
2019-02-26T21:27:31.744Z,1.30
2019-02-26T21:30:35.501Z,1.30
2019-02-26T21:33:39.661Z,1.30
2019-02-26T21:36:43.308Z,1.20
2019-02-26T21:39:47.340Z,1.10
2019-02-26T21:42:51.019Z,1.00
2019-02-26T21:45:54.496Z,0.90
2019-02-26T21:48:58.369Z,0.80
2019-02-26T21:52:01.877Z,0.80
2019-02-26T21:55:05.864Z,0.80
2019-02-26T21:58:09.502Z,0.80
2019-02-26T22:01:14.129Z,0.70
2019-02-26T22:04:17.789Z,0.70
2019-02-26T22:07:21.393Z,0.70
2019-02-26T22:10:24.823Z,0.60
2019-02-26T22:13:29.284Z,0.60
2019-02-26T22:16:33.257Z,0.50
2019-02-26T22:19:37.687Z,0.50
2019-02-26T22:22:42.417Z,0.40
2019-02-26T22:25:46.056Z,0.30
2019-02-26T22:28:49.409Z,0.20
2019-02-26T22:31:53.320Z,0.20
2019-02-26T22:34:57.028Z,0.10
2019-02-26T22:38:00.638Z,0.10
2019-02-26T22:41:35.162Z,0.10
2019-02-26T22:44:39.283Z,0.10
2019-02-26T22:47:44.144Z,0.10
2019-02-26T22:50:48.020Z,0.10
2019-02-26T22:53:51.527Z,0.10
2019-02-26T23:02:31.579Z,0.00
2019-02-26T23:05:35.120Z,0.10
2019-02-26T23:08:38.783Z,0.00
2019-02-26T23:11:42.228Z,-0.10
2019-02-26T23:14:45.736Z,-0.20
2019-02-26T23:17:49.396Z,-0.20
2019-02-26T23:20:53.040Z,-0.10
2019-02-26T23:23:56.540Z,0.00
2019-02-26T23:27:00.660Z,0.00
2019-02-26T23:30:07.704Z,0.00
2019-02-26T23:33:15.034Z,0.10
2019-02-26T23:36:18.844Z,0.20
2019-02-26T23:39:22.335Z,0.20
2019-02-26T23:42:27.692Z,0.30
2019-02-26T23:45:31.495Z,0.30
2019-02-26T23:48:35.068Z,0.30
2019-02-26T23:51:38.512Z,0.20
2019-02-26T23:54:41.972Z,0.20
2019-02-26T23:57:45.575Z,0.20
